Terminal Aerodrome Forecast
Issued by NWS Pocatello, ID

Home | Current Version | Previous Version | Text Only | Print | Product List | Glossary On
Versions: 1 2 3 4 5 6 7 8 9 10 11 12 13 14 15 16 17 18 19 20
415
FTUS45 KPIH 191909 AAA
TAFPIH
TAF AMD
KPIH 191909Z 1919/2018 20011KT 6SM -SHSN BR OVC015
     FM200300 21007KT P6SM VCSH SCT007 OVC010
     FM201000 20005KT 5SM BR VCSH SCT003 OVC007=

USA.gov is the U.S. government's official web portal to all federal, state and local government web resources and services.